createdAt,value
2022-09-11T00:04:23.650Z,15.10
2022-09-11T00:06:58.318Z,15.08
2022-09-11T00:09:38.025Z,15.11
2022-09-11T00:12:10.914Z,15.12
2022-09-11T00:14:49.301Z,15.14
2022-09-11T00:17:22.185Z,15.16
2022-09-11T00:20:01.445Z,15.18
2022-09-11T00:22:33.914Z,15.20
2022-09-11T00:25:12.693Z,15.22
2022-09-11T00:27:45.711Z,15.21
2022-09-11T00:30:24.457Z,15.20
2022-09-11T00:33:00.000Z,15.19
2022-09-11T00:50:22.643Z,15.04
2022-09-11T00:56:43.365Z,14.94
2022-09-11T01:16:50.680Z,14.78
2022-09-11T03:44:21.977Z,14.74
2022-09-11T03:51:05.831Z,14.78
2022-09-11T03:54:38.956Z,14.73
2022-09-11T04:01:30.951Z,14.76
2022-09-11T04:04:04.835Z,14.77
2022-09-11T04:07:11.283Z,14.79
2022-09-11T04:09:45.763Z,14.79
2022-09-11T04:13:13.783Z,14.80
2022-09-11T04:24:51.261Z,14.81
2022-09-11T04:27:23.900Z,14.75
2022-09-11T04:29:57.717Z,14.73
2022-09-11T04:32:31.516Z,14.73
2022-09-11T04:35:04.208Z,14.74
2022-09-11T04:37:40.974Z,14.76
2022-09-11T04:40:14.215Z,14.78
2022-09-11T04:42:47.212Z,14.77
2022-09-11T04:45:20.214Z,14.79
2022-09-11T04:47:53.140Z,14.79
2022-09-11T04:50:26.353Z,14.78
2022-09-11T04:53:14.629Z,14.77
2022-09-11T04:55:47.141Z,14.73
2022-09-11T04:58:20.126Z,14.72
2022-09-11T05:00:52.360Z,14.74
2022-09-11T05:03:25.008Z,14.77
2022-09-11T05:06:06.079Z,14.77
2022-09-11T05:08:38.962Z,14.77
2022-09-11T05:11:14.788Z,14.79
2022-09-11T05:13:47.913Z,14.80
2022-09-11T05:16:21.188Z,14.79
2022-09-11T05:18:54.776Z,14.80
2022-09-11T05:21:28.480Z,14.78
2022-09-11T05:24:03.543Z,14.78
2022-09-11T05:26:39.250Z,14.79
2022-09-11T05:29:16.024Z,14.82
2022-09-11T05:31:55.928Z,14.86
2022-09-11T05:34:29.921Z,14.89
2022-09-11T05:37:03.203Z,14.90
2022-09-11T05:39:38.900Z,14.91
2022-09-11T05:42:11.879Z,14.93
2022-09-11T05:44:48.526Z,14.95
2022-09-11T05:47:21.858Z,14.97
2022-09-11T05:49:55.282Z,14.95
2022-09-11T05:52:30.025Z,14.97
2022-09-11T05:55:02.312Z,14.95
2022-09-11T05:57:34.718Z,14.92
2022-09-11T06:00:13.430Z,14.88
2022-09-11T06:02:56.190Z,14.87
2022-09-11T06:05:32.320Z,14.89
2022-09-11T06:08:53.759Z,14.92
2022-09-11T06:11:32.603Z,14.95
2022-09-11T06:14:05.059Z,14.96
2022-09-11T06:16:43.539Z,14.98
2022-09-11T06:24:32.768Z,14.85
2022-09-11T06:27:12.375Z,14.85
2022-09-11T06:35:01.420Z,14.67
2022-09-11T06:37:40.732Z,14.65
2022-09-11T06:40:14.525Z,14.72
2022-09-11T06:42:54.341Z,14.79
2022-09-11T06:50:45.005Z,14.97
2022-09-11T06:53:26.013Z,15.01
2022-09-11T07:05:18.634Z,15.08
2022-09-11T07:08:19.809Z,15.11
2022-09-11T07:11:46.916Z,15.15
2022-09-11T07:14:28.301Z,15.20
2022-09-11T07:17:49.821Z,15.23
2022-09-11T07:20:28.890Z,15.21
2022-09-11T07:23:01.980Z,15.21
2022-09-11T07:51:57.658Z,15.21
2022-09-11T07:59:38.348Z,15.14
2022-09-11T08:06:42.913Z,15.17
2022-09-11T08:14:37.015Z,15.27
2022-09-11T08:17:58.860Z,15.30
2022-09-11T08:20:32.292Z,15.31
2022-09-11T08:23:12.969Z,15.32
2022-09-11T08:25:45.375Z,15.32
2022-09-11T08:28:23.723Z,15.32
2022-09-11T08:35:12.506Z,15.31
2022-09-11T08:38:05.857Z,15.23
2022-09-11T08:49:53.980Z,15.23
2022-09-11T08:52:28.523Z,15.21
2022-09-11T09:00:11.037Z,15.25
2022-09-11T09:17:19.443Z,15.00
2022-09-11T09:20:03.217Z,14.88
2022-09-11T09:40:03.663Z,14.87
2022-09-11T09:47:02.545Z,14.87
2022-09-11T09:49:48.336Z,14.90
2022-09-11T10:02:04.318Z,15.14
2022-09-11T10:08:48.779Z,15.15
2022-09-11T10:12:12.589Z,15.18
2022-09-11T11:14:11.640Z,17.08
2022-09-11T11:21:49.157Z,16.82
2022-09-11T11:28:44.326Z,16.75
2022-09-11T11:31:39.369Z,16.66
2022-09-11T11:35:36.984Z,16.61
2022-09-11T11:43:17.966Z,16.74
2022-09-11T11:50:50.562Z,16.70
2022-09-11T11:57:42.541Z,16.59
2022-09-11T12:07:42.711Z,16.79
2022-09-11T12:19:40.274Z,17.30
2022-09-11T12:40:38.250Z,17.82
2022-09-11T12:47:47.028Z,17.90
2022-09-11T12:59:45.079Z,17.70
2022-09-11T13:12:02.391Z,16.93
2022-09-11T13:15:48.792Z,16.64
2022-09-11T13:32:39.203Z,16.11
2022-09-11T13:44:03.078Z,15.76
2022-09-11T13:56:02.947Z,15.81
2022-09-11T13:58:44.985Z,15.86
2022-09-11T14:06:23.886Z,15.90
2022-09-11T14:13:23.257Z,15.80
2022-09-11T14:19:56.582Z,15.71
2022-09-11T14:27:53.256Z,15.75
2022-09-11T14:48:27.186Z,15.93
2022-09-11T14:51:03.793Z,15.90
2022-09-11T14:53:37.585Z,15.93
2022-09-11T14:56:10.648Z,15.90
2022-09-11T15:01:32.559Z,15.89
2022-09-11T15:04:06.191Z,15.86
2022-09-11T15:06:40.345Z,15.84
2022-09-11T15:09:13.171Z,15.81
2022-09-11T15:11:59.738Z,15.84
2022-09-11T15:14:55.553Z,15.80
2022-09-11T15:17:31.971Z,15.80
2022-09-11T15:20:09.312Z,15.79
2022-09-11T15:22:43.890Z,15.74
2022-09-11T15:25:29.645Z,15.81
2022-09-11T15:28:03.636Z,15.83
2022-09-11T15:30:45.040Z,15.83
2022-09-11T15:33:19.019Z,15.80
2022-09-11T15:35:52.084Z,15.81
2022-09-11T15:38:25.270Z,15.75
2022-09-11T15:41:04.569Z,15.67
2022-09-11T15:43:45.417Z,15.64
2022-09-11T15:46:21.836Z,15.67
2022-09-11T15:48:56.584Z,15.67
2022-09-11T15:51:31.220Z,15.67
2022-09-11T15:54:05.570Z,15.65
2022-09-11T15:56:41.904Z,15.65
2022-09-11T15:59:20.406Z,15.57
2022-09-11T16:01:54.339Z,15.49
2022-09-11T16:04:32.395Z,15.44
2022-09-11T16:07:06.569Z,15.44
2022-09-11T16:09:43.511Z,15.43
2022-09-11T16:12:18.289Z,15.38
2022-09-11T16:14:55.265Z,15.31
2022-09-11T16:17:33.732Z,15.28
2022-09-11T16:20:07.204Z,15.29
2022-09-11T16:22:45.277Z,15.24
2022-09-11T16:25:23.232Z,15.20
2022-09-11T16:27:59.922Z,15.17
2022-09-11T16:30:43.592Z,15.15
2022-09-11T16:33:24.372Z,15.12
2022-09-11T16:36:07.272Z,15.10
2022-09-11T16:38:43.989Z,15.08
2022-09-11T16:41:25.915Z,15.07
2022-09-11T16:43:58.647Z,15.05
2022-09-11T16:46:31.960Z,15.02
2022-09-11T16:49:07.976Z,14.98
2022-09-11T16:51:45.765Z,15.00
2022-09-11T16:54:24.429Z,14.98
2022-09-11T16:56:59.180Z,14.94
2022-09-11T16:59:41.288Z,14.92
2022-09-11T17:02:17.365Z,14.91
2022-09-11T17:04:55.289Z,14.88
2022-09-11T17:07:31.303Z,14.85
2022-09-11T17:10:08.307Z,14.83
2022-09-11T17:12:41.308Z,14.80
2022-09-11T17:15:15.131Z,14.78
2022-09-11T17:17:51.522Z,14.74
2022-09-11T17:20:24.824Z,14.75
2022-09-11T17:23:00.684Z,14.79
2022-09-11T17:25:34.238Z,14.78
2022-09-11T17:28:07.498Z,14.76
2022-09-11T17:30:41.302Z,14.77
2022-09-11T17:33:14.765Z,14.74
2022-09-11T17:35:49.464Z,14.74
2022-09-11T17:38:23.766Z,14.74
2022-09-11T17:41:02.312Z,14.76
2022-09-11T17:43:37.934Z,14.71
2022-09-11T17:46:21.462Z,14.72
2022-09-11T17:48:56.588Z,14.70
2022-09-11T17:51:33.224Z,14.66
2022-09-11T17:54:10.706Z,14.63
2022-09-11T17:56:43.765Z,14.59
2022-09-11T17:59:19.251Z,14.56
2022-09-11T18:01:52.194Z,14.52
2022-09-11T18:04:30.934Z,14.50
2022-09-11T18:07:05.249Z,14.53
2022-09-11T18:09:40.910Z,14.50
2022-09-11T18:12:18.894Z,14.53
2022-09-11T18:14:56.281Z,14.56
2022-09-11T18:17:32.084Z,14.52
2022-09-11T18:20:07.562Z,14.51
2022-09-11T18:22:42.613Z,14.54
2022-09-11T18:25:17.096Z,14.52
2022-09-11T18:27:55.192Z,14.49
2022-09-11T18:30:33.346Z,14.43
2022-09-11T18:33:10.722Z,14.37
2022-09-11T18:35:47.436Z,14.32
2022-09-11T18:38:28.786Z,14.32
2022-09-11T18:41:06.413Z,14.27
2022-09-11T18:43:39.541Z,14.24
2022-09-11T18:46:18.012Z,14.23
2022-09-11T18:48:51.205Z,14.21
2022-09-11T18:51:26.926Z,14.21
2022-09-11T18:54:00.909Z,14.19
2022-09-11T18:56:36.003Z,14.17
2022-09-11T18:59:14.369Z,14.15
2022-09-11T19:01:53.540Z,14.16
2022-09-11T19:04:31.881Z,14.15
2022-09-11T19:07:06.253Z,14.13
2022-09-11T19:09:45.672Z,14.13
2022-09-11T19:12:19.290Z,14.11
2022-09-11T19:14:52.622Z,14.09
2022-09-11T19:17:25.543Z,14.05
2022-09-11T19:20:00.548Z,14.00
2022-09-11T19:22:33.657Z,13.96
2022-09-11T19:25:08.651Z,13.93
2022-09-11T19:27:42.086Z,13.89
2022-09-11T19:30:23.351Z,13.84
2022-09-11T19:32:55.966Z,13.82
2022-09-11T19:35:28.932Z,13.75
2022-09-11T19:38:02.165Z,13.71
2022-09-11T19:40:35.047Z,13.68
2022-09-11T19:43:12.328Z,13.65
2022-09-11T19:45:44.536Z,13.62
2022-09-11T19:48:18.104Z,13.58
2022-09-11T19:50:52.756Z,13.54
2022-09-11T19:53:25.338Z,13.49
2022-09-11T19:56:01.252Z,13.44
2022-09-11T19:58:35.084Z,13.40
2022-09-11T20:01:10.029Z,13.35
2022-09-11T20:03:46.128Z,13.27
2022-09-11T20:06:19.579Z,13.18
2022-09-11T20:09:13.823Z,13.14
2022-09-11T20:11:49.498Z,13.11
2022-09-11T20:14:21.691Z,13.12
2022-09-11T20:16:56.042Z,13.10
2022-09-11T20:19:28.412Z,13.12
2022-09-11T20:22:03.370Z,13.11
2022-09-11T20:24:35.479Z,13.08
2022-09-11T20:27:07.950Z,13.07
2022-09-11T20:29:41.887Z,13.08
2022-09-11T20:32:16.833Z,13.07
2022-09-11T20:34:48.999Z,13.05
2022-09-11T20:37:21.424Z,13.03
2022-09-11T20:39:53.828Z,13.00
2022-09-11T20:42:26.298Z,12.99
2022-09-11T20:45:00.465Z,12.96
2022-09-11T20:47:32.993Z,12.94
2022-09-11T20:50:05.636Z,12.90
2022-09-11T20:52:39.693Z,12.85
2022-09-11T20:55:12.682Z,12.85
2022-09-11T20:57:44.948Z,12.83
2022-09-11T21:00:18.507Z,12.83
2022-09-11T21:02:50.686Z,12.83
2022-09-11T21:05:23.646Z,12.85
2022-09-11T21:09:34.217Z,12.91
2022-09-11T21:12:07.656Z,12.93
2022-09-11T21:14:39.779Z,12.89
2022-09-11T21:17:11.959Z,12.89
2022-09-11T21:19:45.510Z,12.87
2022-09-11T21:22:17.621Z,12.86
2022-09-11T21:24:49.710Z,12.83
2022-09-11T21:27:22.069Z,12.79
2022-09-11T21:29:55.554Z,12.77
2022-09-11T21:32:28.134Z,12.74
2022-09-11T21:37:50.280Z,12.69
2022-09-11T21:40:22.701Z,12.68
2022-09-11T21:42:54.898Z,12.68
2022-09-11T21:45:27.379Z,12.68
2022-09-11T21:47:59.501Z,12.67
2022-09-11T21:50:31.794Z,12.66
2022-09-11T21:53:03.966Z,12.64
2022-09-11T21:55:40.067Z,12.67
2022-09-11T21:58:16.781Z,12.66
2022-09-11T22:00:49.989Z,12.66
2022-09-11T22:03:23.777Z,12.65
2022-09-11T22:05:57.023Z,12.62
2022-09-11T22:08:29.712Z,12.58
2022-09-11T22:11:04.224Z,12.56
2022-09-11T22:13:37.829Z,12.54
2022-09-11T22:16:13.093Z,12.54
2022-09-11T22:18:48.935Z,12.56
2022-09-11T22:21:21.449Z,12.60
2022-09-11T22:23:57.362Z,12.60
2022-09-11T22:26:31.357Z,12.58
2022-09-11T22:29:04.410Z,12.56
2022-09-11T22:31:36.707Z,12.56
2022-09-11T22:34:09.719Z,12.57
2022-09-11T22:36:41.875Z,12.56
2022-09-11T22:39:14.106Z,12.56
2022-09-11T22:41:46.243Z,12.53
2022-09-11T22:44:21.182Z,12.50
2022-09-11T22:46:53.409Z,12.46
2022-09-11T22:49:25.757Z,12.43
2022-09-11T22:51:57.953Z,12.42
2022-09-11T22:54:30.444Z,12.44
2022-09-11T22:57:02.832Z,12.46
2022-09-11T22:59:35.105Z,12.44
2022-09-11T23:02:08.055Z,12.43
2022-09-11T23:04:40.432Z,12.44
2022-09-11T23:07:16.700Z,12.40
2022-09-11T23:09:49.882Z,12.37
2022-09-11T23:12:22.958Z,12.37
2022-09-11T23:14:57.089Z,12.36
2022-09-11T23:17:29.263Z,12.33
2022-09-11T23:20:01.487Z,12.32
2022-09-11T23:22:33.817Z,12.29
2022-09-11T23:25:06.953Z,12.27
2022-09-11T23:27:39.705Z,12.28
2022-09-11T23:30:12.941Z,12.27
2022-09-11T23:32:45.134Z,12.26
2022-09-11T23:35:18.460Z,12.26
2022-09-11T23:37:51.539Z,12.23
2022-09-11T23:40:24.020Z,12.25
2022-09-11T23:42:57.387Z,12.24
2022-09-11T23:45:30.625Z,12.24
2022-09-11T23:48:03.596Z,12.24
2022-09-11T23:50:35.632Z,12.22
2022-09-11T23:53:07.991Z,12.20
2022-09-11T23:55:42.465Z,12.17
2022-09-11T23:58:14.780Z,12.12
